createdAt,value
2022-08-03T00:01:43.773Z,16.11
2022-08-03T00:04:12.290Z,16.07
2022-08-03T00:06:40.262Z,16.02
2022-08-03T00:09:08.437Z,15.96
2022-08-03T00:11:36.921Z,15.92
2022-08-03T00:14:06.042Z,15.86
2022-08-03T00:16:34.459Z,15.78
2022-08-03T00:19:02.585Z,15.72
2022-08-03T00:21:30.455Z,15.66
2022-08-03T00:23:58.393Z,15.62
2022-08-03T00:26:26.372Z,15.57
2022-08-03T00:28:54.413Z,15.53
2022-08-03T00:31:44.980Z,15.49
2022-08-03T00:34:10.529Z,15.46
2022-08-03T00:36:40.746Z,15.43
2022-08-03T00:39:11.510Z,15.39
2022-08-03T00:41:39.466Z,15.36
2022-08-03T00:44:07.990Z,15.32
2022-08-03T00:46:36.036Z,15.29
2022-08-03T00:49:04.247Z,15.27
2022-08-03T00:51:34.039Z,15.22
2022-08-03T00:54:01.924Z,15.19
2022-08-03T00:56:29.937Z,15.15
2022-08-03T00:58:58.873Z,15.13
2022-08-03T01:01:26.957Z,15.08
2022-08-03T01:04:00.383Z,15.04
2022-08-03T01:06:36.389Z,15.01
2022-08-03T01:09:15.689Z,14.98
2022-08-03T01:12:00.631Z,14.95
2022-08-03T01:14:35.585Z,14.92
2022-08-03T01:17:06.545Z,14.90
2022-08-03T01:19:52.882Z,14.86
2022-08-03T01:22:36.973Z,14.83
2022-08-03T01:25:30.854Z,14.78
2022-08-03T01:27:58.754Z,14.74
2022-08-03T01:30:35.448Z,14.70
2022-08-03T01:33:11.761Z,14.66
2022-08-03T01:35:43.605Z,14.62
2022-08-03T01:38:22.653Z,14.58
2022-08-03T01:40:54.059Z,14.55
2022-08-03T01:44:27.853Z,14.53
2022-08-03T01:46:14.033Z,14.51
2022-08-03T01:48:43.609Z,14.50
2022-08-03T01:51:12.232Z,14.48
2022-08-03T01:53:42.981Z,14.45
2022-08-03T01:56:12.332Z,14.42
2022-08-03T01:58:41.159Z,14.38
2022-08-03T02:01:10.551Z,14.37
2022-08-03T02:04:00.476Z,14.37
2022-08-03T02:07:02.305Z,14.35
2022-08-03T02:09:20.530Z,14.36
2022-08-03T02:11:49.749Z,14.37
2022-08-03T02:14:20.251Z,14.38
2022-08-03T02:16:49.333Z,14.38
2022-08-03T02:19:31.409Z,14.38
2022-08-03T02:22:53.992Z,14.39
2022-08-03T02:25:22.267Z,14.40
2022-08-03T02:27:53.259Z,14.42
2022-08-03T02:30:22.724Z,14.43
2022-08-03T02:33:03.184Z,14.42
2022-08-03T02:35:33.176Z,14.42
2022-08-03T02:38:02.537Z,14.43
2022-08-03T02:40:31.535Z,14.44
2022-08-03T02:43:00.663Z,14.44
2022-08-03T02:45:29.920Z,14.44
2022-08-03T02:48:00.213Z,14.44
2022-08-03T02:50:28.879Z,14.44
2022-08-03T02:52:58.445Z,14.44
2022-08-03T02:55:27.617Z,14.43
2022-08-03T02:58:01.345Z,14.43
2022-08-03T03:00:31.931Z,14.42
2022-08-03T03:03:00.783Z,14.43
2022-08-03T03:05:55.965Z,14.44
2022-08-03T03:08:25.846Z,14.43
2022-08-03T03:10:56.038Z,14.43
2022-08-03T03:13:24.550Z,14.43
2022-08-03T03:15:53.856Z,14.43
2022-08-03T03:18:22.852Z,14.46
2022-08-03T03:20:53.300Z,14.46
2022-08-03T03:23:25.267Z,14.50
2022-08-03T03:25:53.609Z,14.52
2022-08-03T03:28:21.985Z,14.56
2022-08-03T03:30:53.212Z,14.59
2022-08-03T03:33:22.052Z,14.62
2022-08-03T03:35:51.858Z,14.66
2022-08-03T03:38:20.102Z,14.70
2022-08-03T03:40:48.814Z,14.71
2022-08-03T03:43:18.776Z,14.77
2022-08-03T03:45:47.604Z,14.82
2022-08-03T03:48:15.885Z,14.86
2022-08-03T03:50:43.986Z,14.91
2022-08-03T03:53:12.761Z,14.97
2022-08-03T03:55:59.141Z,15.03
2022-08-03T03:58:29.471Z,15.11
2022-08-03T04:00:57.493Z,15.19
2022-08-03T04:03:25.700Z,15.28
2022-08-03T04:06:12.492Z,15.36
2022-08-03T04:09:12.758Z,15.46
2022-08-03T04:11:51.966Z,15.56
2022-08-03T04:14:22.791Z,15.65
2022-08-03T04:16:53.771Z,15.75
2022-08-03T04:19:27.864Z,15.85
2022-08-03T04:21:58.102Z,15.94
2022-08-03T04:24:29.542Z,16.04
2022-08-03T04:26:59.580Z,16.13
2022-08-03T04:29:29.212Z,16.21
2022-08-03T04:31:59.073Z,16.29
2022-08-03T04:34:27.663Z,16.38
2022-08-03T04:36:59.294Z,16.48
2022-08-03T04:39:28.868Z,16.58
2022-08-03T04:42:17.034Z,16.70
2022-08-03T04:44:46.901Z,16.84
2022-08-03T04:47:15.179Z,16.97
2022-08-03T04:49:43.879Z,17.14
2022-08-03T04:52:12.146Z,17.33
2022-08-03T04:54:48.809Z,17.54
2022-08-03T04:57:23.253Z,17.77
2022-08-03T05:00:01.419Z,18.02
2022-08-03T05:02:31.949Z,18.26
2022-08-03T05:05:00.049Z,18.48
2022-08-03T05:07:35.547Z,18.68
2022-08-03T05:10:14.795Z,18.91
2022-08-03T05:12:45.946Z,19.17
2022-08-03T05:15:14.126Z,19.36
2022-08-03T05:17:42.072Z,19.52
2022-08-03T05:20:10.512Z,20.07
2022-08-03T05:22:38.692Z,21.11
2022-08-03T05:25:06.745Z,21.83
2022-08-03T05:27:35.260Z,22.37
2022-08-03T05:30:29.867Z,22.68
2022-08-03T05:32:52.356Z,22.98
2022-08-03T05:35:57.673Z,23.22
2022-08-03T05:38:09.218Z,23.34
2022-08-03T05:40:37.566Z,23.67
2022-08-03T05:43:07.413Z,23.95
2022-08-03T05:45:36.692Z,24.15
2022-08-03T05:48:07.568Z,24.23
2022-08-03T05:50:41.099Z,25.18
2022-08-03T05:53:10.836Z,26.93
2022-08-03T05:55:38.702Z,28.48
2022-08-03T05:58:06.899Z,29.87
2022-08-03T06:00:34.800Z,31.29
2022-08-03T06:03:02.658Z,32.57
2022-08-03T06:05:31.481Z,33.59
2022-08-03T06:07:59.340Z,34.23
2022-08-03T06:10:35.738Z,34.25
2022-08-03T06:13:05.565Z,33.75
2022-08-03T06:15:35.663Z,33.07
2022-08-03T06:18:03.568Z,32.47
2022-08-03T06:20:31.606Z,31.83
2022-08-03T06:23:01.212Z,31.40
2022-08-03T06:25:29.494Z,31.09
2022-08-03T06:27:57.568Z,30.83
2022-08-03T06:30:26.386Z,30.57
2022-08-03T06:32:54.242Z,30.34
2022-08-03T06:35:22.192Z,30.14
2022-08-03T06:37:52.760Z,29.96
2022-08-03T06:40:31.553Z,29.79
2022-08-03T06:43:00.414Z,29.47
2022-08-03T06:45:31.573Z,29.23
2022-08-03T06:48:06.361Z,29.07
2022-08-03T06:50:35.034Z,28.89
2022-08-03T06:53:03.400Z,28.80
2022-08-03T06:55:32.323Z,28.75
2022-08-03T06:58:03.570Z,28.68
2022-08-03T07:00:31.890Z,28.55
2022-08-03T07:03:00.222Z,28.44
2022-08-03T07:05:28.645Z,28.40
2022-08-03T07:08:01.962Z,28.42
2022-08-03T07:10:29.907Z,28.45
2022-08-03T07:12:57.814Z,28.43
2022-08-03T07:15:54.014Z,28.46
2022-08-03T07:18:16.110Z,28.52
2022-08-03T07:20:44.086Z,28.56
2022-08-03T07:23:18.932Z,28.60
2022-08-03T07:25:47.544Z,28.56
2022-08-03T07:28:15.458Z,28.62
2022-08-03T07:30:43.383Z,28.66
2022-08-03T07:33:11.751Z,28.66
2022-08-03T07:35:39.838Z,28.53
2022-08-03T07:38:07.735Z,28.43
2022-08-03T07:40:35.644Z,28.48
2022-08-03T07:43:03.914Z,28.63
2022-08-03T07:45:32.226Z,28.74
2022-08-03T07:48:00.124Z,28.87
2022-08-03T07:50:27.984Z,29.03
2022-08-03T07:52:57.934Z,29.03
2022-08-03T07:55:26.707Z,28.98
2022-08-03T07:58:00.860Z,29.01
2022-08-03T08:00:29.034Z,29.15
2022-08-03T08:02:57.536Z,29.26
2022-08-03T08:05:25.683Z,29.42
2022-08-03T08:07:53.837Z,29.51
2022-08-03T08:10:21.839Z,29.63
2022-08-03T08:12:49.810Z,29.72
2022-08-03T08:15:17.986Z,29.81
2022-08-03T08:17:53.830Z,29.96
2022-08-03T08:20:27.723Z,30.11
2022-08-03T08:22:58.299Z,30.24
2022-08-03T08:25:29.869Z,30.32
2022-08-03T08:28:29.098Z,30.19
2022-08-03T08:30:46.753Z,30.19
2022-08-03T08:33:22.394Z,30.27
2022-08-03T08:35:52.010Z,30.29
2022-08-03T08:38:19.860Z,30.35
2022-08-03T08:40:49.002Z,30.33
2022-08-03T08:43:16.843Z,30.37
2022-08-03T08:45:45.169Z,30.45
2022-08-03T08:48:13.420Z,30.51
2022-08-03T08:50:41.626Z,30.53
2022-08-03T08:53:18.266Z,30.61
2022-08-03T08:55:58.076Z,30.65
2022-08-03T08:58:35.128Z,30.66
2022-08-03T09:01:04.335Z,30.56
2022-08-03T09:03:33.807Z,30.63
2022-08-03T09:06:02.622Z,30.81
2022-08-03T09:08:32.234Z,30.98
2022-08-03T09:11:00.238Z,31.12
2022-08-03T09:13:29.369Z,31.25
2022-08-03T09:16:12.088Z,31.35
2022-08-03T09:18:40.950Z,31.38
2022-08-03T09:21:30.658Z,31.33
2022-08-03T09:24:05.690Z,31.32
2022-08-03T09:26:35.713Z,31.31
2022-08-03T09:29:13.968Z,31.34
2022-08-03T09:31:44.837Z,31.30
2022-08-03T09:34:14.039Z,31.28
2022-08-03T09:36:46.853Z,31.34
2022-08-03T09:39:16.582Z,31.45
2022-08-03T09:41:45.842Z,31.56
2022-08-03T09:44:24.419Z,31.70
2022-08-03T09:46:56.418Z,31.75
2022-08-03T09:49:25.200Z,31.66
2022-08-03T09:52:32.646Z,31.66
2022-08-03T09:54:43.241Z,31.76
2022-08-03T09:57:24.466Z,31.86
2022-08-03T10:00:03.081Z,31.95
2022-08-03T10:02:41.960Z,31.95
2022-08-03T10:05:10.952Z,31.73
2022-08-03T10:07:49.995Z,31.74
2022-08-03T10:10:30.495Z,31.73
2022-08-03T10:13:00.325Z,31.77
2022-08-03T10:16:23.785Z,31.84
2022-08-03T10:18:16.603Z,32.01
2022-08-03T10:20:49.330Z,32.20
2022-08-03T10:23:18.407Z,32.29
2022-08-03T10:25:47.919Z,32.39
2022-08-03T10:28:17.203Z,32.53
2022-08-03T10:30:48.804Z,32.70
2022-08-03T10:33:50.310Z,32.85
2022-08-03T10:36:11.203Z,32.89
2022-08-03T10:38:48.039Z,32.93
2022-08-03T10:41:16.929Z,33.03
2022-08-03T10:43:53.159Z,33.11
2022-08-03T10:46:21.647Z,33.15
2022-08-03T10:48:52.645Z,33.08
2022-08-03T10:51:21.983Z,33.07
2022-08-03T10:53:55.272Z,33.10
2022-08-03T10:56:52.760Z,33.17
2022-08-03T10:59:40.372Z,33.19
2022-08-03T11:02:10.094Z,32.93
2022-08-03T11:04:38.288Z,32.64
2022-08-03T11:07:23.457Z,32.35
2022-08-03T11:09:53.518Z,32.11
2022-08-03T11:12:22.711Z,31.92
2022-08-03T11:15:01.517Z,31.69
2022-08-03T11:17:29.823Z,31.68
2022-08-03T11:20:56.703Z,31.75
2022-08-03T11:24:05.191Z,31.86
2022-08-03T11:26:31.462Z,31.89
2022-08-03T11:29:19.453Z,31.91
2022-08-03T11:31:51.008Z,31.90
2022-08-03T11:34:20.040Z,31.89
2022-08-03T11:37:06.712Z,31.70
2022-08-03T11:39:43.670Z,31.69
2022-08-03T11:42:23.988Z,31.79
2022-08-03T11:44:52.876Z,31.83
2022-08-03T11:47:21.514Z,31.73
2022-08-03T11:49:50.623Z,31.63
2022-08-03T11:52:27.315Z,31.62
2022-08-03T11:54:57.421Z,31.73
2022-08-03T11:59:15.292Z,31.87
2022-08-03T12:00:21.037Z,32.01
2022-08-03T12:03:16.302Z,32.09
2022-08-03T12:05:52.588Z,32.10
2022-08-03T12:08:26.508Z,32.03
2022-08-03T12:10:55.406Z,31.92
2022-08-03T12:13:56.694Z,31.77
2022-08-03T12:16:21.758Z,31.69
2022-08-03T12:19:00.104Z,31.69
2022-08-03T12:21:28.577Z,31.72
2022-08-03T12:23:59.104Z,31.66
2022-08-03T12:26:27.791Z,31.57
2022-08-03T12:28:55.941Z,31.53
2022-08-03T12:31:23.892Z,31.48
2022-08-03T12:34:05.178Z,31.41
2022-08-03T12:36:34.747Z,31.32
2022-08-03T12:39:07.563Z,31.37
2022-08-03T12:41:40.075Z,31.45
2022-08-03T12:44:08.922Z,31.46
2022-08-03T12:46:39.401Z,31.46
2022-08-03T12:49:08.956Z,31.48
2022-08-03T12:51:43.793Z,31.46
2022-08-03T12:54:24.852Z,31.54
2022-08-03T12:56:58.791Z,31.70
2022-08-03T12:59:40.466Z,31.84
2022-08-03T13:02:17.697Z,31.87
2022-08-03T13:04:47.435Z,31.89
2022-08-03T13:07:16.052Z,31.88
2022-08-03T13:09:50.236Z,31.70
2022-08-03T13:12:20.851Z,31.48
2022-08-03T13:14:50.642Z,31.23
2022-08-03T13:17:19.215Z,31.02
2022-08-03T13:19:48.038Z,30.97
2022-08-03T13:22:16.883Z,31.00
2022-08-03T13:24:45.967Z,31.02
2022-08-03T13:28:02.232Z,31.01
2022-08-03T13:30:04.010Z,30.96
2022-08-03T13:32:32.725Z,30.86
2022-08-03T13:35:02.589Z,30.86
2022-08-03T13:37:32.406Z,30.92
2022-08-03T13:40:02.497Z,31.02
2022-08-03T13:42:32.196Z,31.17
2022-08-03T13:45:00.858Z,31.27
2022-08-03T13:47:28.870Z,31.38
2022-08-03T13:50:01.049Z,31.52
2022-08-03T13:52:31.786Z,31.67
2022-08-03T13:55:00.663Z,31.82
2022-08-03T13:58:03.904Z,31.97
2022-08-03T14:00:27.455Z,32.09
2022-08-03T14:03:03.914Z,32.16
2022-08-03T14:05:35.983Z,32.21
2022-08-03T14:08:06.802Z,32.26
2022-08-03T14:10:36.064Z,32.26
2022-08-03T14:13:04.973Z,32.28
2022-08-03T14:15:38.325Z,32.24
2022-08-03T14:18:15.424Z,32.18
2022-08-03T14:20:48.660Z,32.20
2022-08-03T14:23:18.254Z,32.18
2022-08-03T14:25:50.239Z,32.05
2022-08-03T14:28:19.596Z,31.87
2022-08-03T14:30:48.723Z,31.76
2022-08-03T14:33:16.867Z,31.69
2022-08-03T14:35:44.774Z,31.65
2022-08-03T14:38:13.146Z,31.56
2022-08-03T14:40:41.154Z,31.46
2022-08-03T14:43:09.179Z,31.37
2022-08-03T14:45:37.133Z,31.25
2022-08-03T14:50:28.636Z,31.14
2022-08-03T14:50:55.273Z,31.07
2022-08-03T14:53:23.421Z,31.07
2022-08-03T14:55:53.172Z,31.07
2022-08-03T14:58:22.510Z,31.05
2022-08-03T15:00:51.734Z,31.03
2022-08-03T15:03:23.235Z,31.03
2022-08-03T15:05:52.096Z,31.02
2022-08-03T15:08:20.325Z,31.01
2022-08-03T15:10:49.218Z,30.94
2022-08-03T15:13:18.181Z,30.87
2022-08-03T15:15:46.145Z,30.78
2022-08-03T15:18:14.441Z,30.73
2022-08-03T15:20:45.323Z,30.68
2022-08-03T15:23:15.569Z,30.65
2022-08-03T15:26:04.113Z,30.61
2022-08-03T15:28:33.145Z,30.54
2022-08-03T15:31:01.302Z,30.46
2022-08-03T15:33:29.475Z,30.36
2022-08-03T15:35:57.382Z,30.21
2022-08-03T15:38:25.874Z,30.09
2022-08-03T15:40:55.143Z,30.00
2022-08-03T15:43:32.015Z,29.96
2022-08-03T15:46:28.280Z,29.89
2022-08-03T15:48:48.022Z,29.82
2022-08-03T15:51:16.276Z,29.73
2022-08-03T15:53:55.998Z,29.64
2022-08-03T15:56:24.029Z,29.53
2022-08-03T15:59:09.945Z,29.41
2022-08-03T16:01:42.253Z,29.28
2022-08-03T16:04:10.341Z,29.18
2022-08-03T16:06:38.546Z,29.09
2022-08-03T16:09:22.861Z,29.01
2022-08-03T16:11:56.385Z,28.83
2022-08-03T16:14:32.699Z,28.68
2022-08-03T16:17:04.525Z,28.58
2022-08-03T16:19:32.575Z,28.52
2022-08-03T16:22:01.760Z,28.44
2022-08-03T16:24:31.961Z,28.34
2022-08-03T16:27:00.826Z,28.25
2022-08-03T16:29:29.017Z,28.15
2022-08-03T16:31:56.942Z,28.06
2022-08-03T16:34:25.198Z,27.97
2022-08-03T16:36:54.850Z,27.89
2022-08-03T16:39:22.967Z,27.82
2022-08-03T16:41:54.000Z,27.73
2022-08-03T16:44:30.104Z,27.61
2022-08-03T16:46:59.322Z,27.50
2022-08-03T16:49:54.939Z,27.42
2022-08-03T16:52:16.809Z,27.33
2022-08-03T16:54:52.811Z,27.26
2022-08-03T16:57:58.853Z,27.18
2022-08-03T17:00:12.125Z,27.08
2022-08-03T17:03:04.343Z,26.97
2022-08-03T17:05:47.194Z,26.85
2022-08-03T17:08:16.061Z,26.72
2022-08-03T17:10:45.223Z,26.57
2022-08-03T17:13:21.554Z,26.43
2022-08-03T17:15:58.131Z,26.27
2022-08-03T17:18:35.625Z,26.13
2022-08-03T17:21:05.397Z,26.00
2022-08-03T17:23:34.369Z,25.88
2022-08-03T17:26:10.565Z,25.76
2022-08-03T17:28:52.138Z,25.62
2022-08-03T17:31:31.391Z,25.46
2022-08-03T17:34:04.430Z,25.30
2022-08-03T17:37:02.171Z,25.14
2022-08-03T17:39:35.830Z,24.98
2022-08-03T17:42:29.196Z,24.81
2022-08-03T17:44:58.825Z,24.63
2022-08-03T17:47:41.987Z,24.45
2022-08-03T17:50:25.002Z,24.25
2022-08-03T17:53:00.971Z,24.04
2022-08-03T17:55:56.383Z,23.82
2022-08-03T17:58:25.590Z,23.59
2022-08-03T18:02:00.275Z,23.38
2022-08-03T18:04:11.162Z,23.14
2022-08-03T18:06:56.181Z,22.90
2022-08-03T18:12:22.672Z,22.46
2022-08-03T18:14:57.646Z,22.22
2022-08-03T18:17:55.887Z,22.02
2022-08-03T18:20:34.089Z,21.83
2022-08-03T18:23:07.229Z,21.65
2022-08-03T18:25:45.431Z,21.49
2022-08-03T18:31:09.969Z,21.15
2022-08-03T18:34:19.599Z,20.98
2022-08-03T18:36:30.507Z,20.81
2022-08-03T18:39:00.274Z,20.66
2022-08-03T18:41:34.995Z,20.53
2022-08-03T18:44:07.119Z,20.41
2022-08-03T18:46:47.385Z,20.32
2022-08-03T18:49:24.932Z,20.21
2022-08-03T18:52:02.831Z,20.10
2022-08-03T18:54:48.918Z,20.00
2022-08-03T18:57:34.758Z,19.88
2022-08-03T19:00:10.467Z,19.78
2022-08-03T19:02:50.633Z,19.67
2022-08-03T19:05:23.298Z,19.57
2022-08-03T19:08:27.037Z,19.47
2022-08-03T19:11:00.565Z,19.36
2022-08-03T19:13:50.418Z,19.27
2022-08-03T19:16:28.650Z,19.18
2022-08-03T19:18:59.594Z,19.11
2022-08-03T19:21:31.458Z,19.05
2022-08-03T19:24:10.409Z,18.99
2022-08-03T19:26:39.862Z,18.94
2022-08-03T19:29:10.747Z,18.89
2022-08-03T19:31:59.113Z,18.84
2022-08-03T19:34:32.766Z,18.79
2022-08-03T19:37:01.117Z,18.73
2022-08-03T19:39:31.791Z,18.68
2022-08-03T19:42:20.205Z,18.63
2022-08-03T19:44:54.728Z,18.58
2022-08-03T19:47:28.509Z,18.53
2022-08-03T19:50:06.230Z,18.46
2022-08-03T19:52:39.731Z,18.37
2022-08-03T19:55:12.039Z,18.29
2022-08-03T19:57:42.588Z,18.22
2022-08-03T20:00:13.975Z,18.15
2022-08-03T20:02:42.163Z,18.10
2022-08-03T20:05:12.061Z,18.03
2022-08-03T20:07:47.615Z,17.96
2022-08-03T20:10:33.680Z,17.86
2022-08-03T20:13:03.399Z,17.78
2022-08-03T20:15:32.080Z,17.70
2022-08-03T20:18:00.332Z,17.61
2022-08-03T20:20:30.619Z,17.53
2022-08-03T20:22:59.944Z,17.48
2022-08-03T20:25:38.297Z,17.43
2022-08-03T20:28:14.503Z,17.39
2022-08-03T20:30:44.006Z,17.34
2022-08-03T20:33:12.656Z,17.27
2022-08-03T20:35:49.410Z,17.20
2022-08-03T20:38:18.727Z,17.15
2022-08-03T20:40:47.747Z,17.11
2022-08-03T20:43:16.412Z,17.07
2022-08-03T20:45:59.125Z,17.04
2022-08-03T20:48:34.892Z,16.98
2022-08-03T20:51:20.214Z,16.95
2022-08-03T20:54:00.134Z,16.90
2022-08-03T20:56:32.378Z,16.84
2022-08-03T20:59:07.163Z,16.79
2022-08-03T21:01:44.398Z,16.71
2022-08-03T21:04:13.585Z,16.65
2022-08-03T21:06:53.388Z,16.60
2022-08-03T21:09:24.596Z,16.57
2022-08-03T21:12:03.207Z,16.52
2022-08-03T21:12:57.103Z,22.67
2022-08-03T21:12:58.148Z,21.34
2022-08-03T21:15:06.616Z,16.47
2022-08-03T21:17:40.777Z,16.43
2022-08-03T21:20:13.089Z,16.38
2022-08-03T21:22:43.672Z,16.34
2022-08-03T21:25:14.170Z,16.32
2022-08-03T21:27:42.310Z,16.30
2022-08-03T21:30:11.421Z,16.26
2022-08-03T21:32:40.391Z,16.23
2022-08-03T21:35:10.695Z,16.20
2022-08-03T21:37:39.806Z,16.18
2022-08-03T21:40:08.609Z,16.14
2022-08-03T21:42:36.581Z,16.12
2022-08-03T21:45:11.865Z,16.09
2022-08-03T21:47:43.693Z,16.07
2022-08-03T21:50:13.382Z,16.04
2022-08-03T21:52:45.503Z,16.00
2022-08-03T21:55:20.486Z,15.97
2022-08-03T21:57:51.960Z,15.94
2022-08-03T22:00:21.424Z,15.91
2022-08-03T22:02:54.531Z,15.87
2022-08-03T22:05:42.982Z,15.83
2022-08-03T22:08:15.503Z,15.79
2022-08-03T22:10:44.437Z,15.74
2022-08-03T22:13:14.284Z,15.68
2022-08-03T22:15:42.611Z,15.64
2022-08-03T22:18:11.059Z,15.57
2022-08-03T22:20:39.251Z,15.51
2022-08-03T22:23:07.803Z,15.46
2022-08-03T22:25:39.152Z,15.43
2022-08-03T22:28:08.885Z,15.38
2022-08-03T22:30:37.483Z,15.34
2022-08-03T22:33:11.699Z,15.29
2022-08-03T22:35:44.348Z,15.25
2022-08-03T22:38:19.303Z,15.22
2022-08-03T22:40:48.730Z,15.21
2022-08-03T22:43:17.118Z,15.19
2022-08-03T22:46:10.209Z,15.17
2022-08-03T22:48:35.842Z,15.15
2022-08-03T22:51:09.601Z,15.13
2022-08-03T22:53:38.605Z,15.12
2022-08-03T22:56:07.239Z,15.10
2022-08-03T22:58:35.295Z,15.10
2022-08-03T23:01:04.653Z,15.08
2022-08-03T23:04:00.749Z,15.08
2022-08-03T23:06:22.072Z,15.09
2022-08-03T23:08:50.624Z,15.08
2022-08-03T23:11:18.952Z,15.06
2022-08-03T23:13:52.316Z,15.04
2022-08-03T23:16:29.216Z,15.03
2022-08-03T23:19:16.355Z,15.01
2022-08-03T23:21:59.828Z,14.97
2022-08-03T23:24:30.256Z,14.94
2022-08-03T23:26:59.397Z,14.90
2022-08-03T23:29:29.410Z,14.86
2022-08-03T23:31:58.206Z,14.81
2022-08-03T23:34:49.298Z,14.77
2022-08-03T23:37:19.287Z,14.72
2022-08-03T23:39:48.486Z,14.67
2022-08-03T23:42:20.588Z,14.64
2022-08-03T23:44:53.059Z,14.59
2022-08-03T23:47:21.408Z,14.55
2022-08-03T23:49:50.048Z,14.52
2022-08-03T23:52:30.085Z,14.48
2022-08-03T23:55:16.468Z,14.44
2022-08-03T23:57:44.435Z,14.40
